createdAt,value
2022-12-08T00:01:55.391Z,85.46
2022-12-08T00:04:58.860Z,84.55
2022-12-08T00:08:08.297Z,84.88
2022-12-08T00:10:57.923Z,84.67
2022-12-08T00:13:48.266Z,84.16
2022-12-08T00:16:38.967Z,84.74
2022-12-08T00:19:29.625Z,84.92
2022-12-08T00:22:18.991Z,84.62
2022-12-08T00:25:09.290Z,84.97
2022-12-08T00:27:58.667Z,85.17
2022-12-08T00:30:48.340Z,85.46
2022-12-08T00:33:39.562Z,85.14
2022-12-08T00:36:29.645Z,84.84
2022-12-08T00:39:19.531Z,85.23
2022-12-08T00:42:15.532Z,84.68
2022-12-08T00:45:05.355Z,84.80
2022-12-08T00:47:54.665Z,84.34
2022-12-08T00:50:45.317Z,85.39
2022-12-08T00:53:34.803Z,85.08
2022-12-08T00:56:24.231Z,85.57
2022-12-08T00:59:13.729Z,85.08
2022-12-08T01:02:06.078Z,85.03
2022-12-08T01:04:55.403Z,85.23
2022-12-08T01:07:46.103Z,85.52
2022-12-08T01:10:37.299Z,85.19
2022-12-08T01:13:26.802Z,85.39
2022-12-08T01:16:23.235Z,85.71
2022-12-08T01:19:14.703Z,85.99
2022-12-08T01:22:04.001Z,86.07
2022-12-08T01:24:54.782Z,86.81
2022-12-08T01:27:44.171Z,86.52
2022-12-08T01:30:33.678Z,87.05
2022-12-08T01:33:23.027Z,86.79
2022-12-08T01:36:22.513Z,86.19
2022-12-08T01:39:18.357Z,86.55
2022-12-08T01:42:22.373Z,86.62
2022-12-08T01:45:22.679Z,86.81
2022-12-08T01:48:18.019Z,86.15
2022-12-08T01:51:08.158Z,86.02
2022-12-08T01:53:57.734Z,85.79
2022-12-08T01:56:56.918Z,86.02
2022-12-08T01:59:55.369Z,86.04
2022-12-08T02:02:54.921Z,86.98
2022-12-08T02:05:45.224Z,86.26
2022-12-08T02:08:36.366Z,86.53
2022-12-08T02:11:25.670Z,86.36
2022-12-08T02:14:16.038Z,86.39
2022-12-08T02:17:17.489Z,86.06
2022-12-08T02:20:41.694Z,86.37
2022-12-08T02:23:43.347Z,86.12
2022-12-08T02:27:32.486Z,86.11
2022-12-08T02:30:26.123Z,85.84
2022-12-08T02:34:00.030Z,86.15
2022-12-08T02:37:00.799Z,86.25
2022-12-08T02:40:01.444Z,86.65
2022-12-08T02:42:59.737Z,86.56
2022-12-08T02:45:55.420Z,86.11
2022-12-08T02:48:46.515Z,86.65
2022-12-08T02:51:35.877Z,86.80
2022-12-08T02:54:25.268Z,86.44
2022-12-08T02:57:33.300Z,86.75
2022-12-08T03:00:26.359Z,87.30
2022-12-08T03:03:25.380Z,86.79
2022-12-08T03:06:30.796Z,87.39
2022-12-08T03:09:30.405Z,87.72
2022-12-08T03:12:27.992Z,87.70
2022-12-08T03:15:21.710Z,87.82
2022-12-08T03:18:15.463Z,86.75
2022-12-08T03:21:07.514Z,86.89
2022-12-08T03:23:58.946Z,86.95
2022-12-08T03:26:53.356Z,86.98
2022-12-08T03:29:42.881Z,86.79
2022-12-08T03:32:38.922Z,87.21
2022-12-08T03:35:32.400Z,87.07
2022-12-08T03:38:21.795Z,87.28
2022-12-08T03:41:22.109Z,86.88
2022-12-08T03:44:11.446Z,87.03
2022-12-08T03:47:00.788Z,86.47
2022-12-08T03:49:50.121Z,86.72
2022-12-08T03:52:39.518Z,86.55
2022-12-08T03:55:28.863Z,87.30
2022-12-08T03:58:19.546Z,87.37
2022-12-08T04:01:08.983Z,86.96
2022-12-08T04:03:58.388Z,87.08
2022-12-08T04:06:47.669Z,87.13
2022-12-08T04:09:37.002Z,86.64
2022-12-08T04:12:26.360Z,86.75
2022-12-08T04:15:17.340Z,86.91
2022-12-08T04:18:07.155Z,86.52
2022-12-08T04:20:56.472Z,86.74
2022-12-08T04:23:46.587Z,86.71
2022-12-08T04:26:35.975Z,86.80
2022-12-08T04:29:25.280Z,87.35
2022-12-08T04:32:15.972Z,87.23
2022-12-08T04:35:05.784Z,87.05
2022-12-08T04:37:55.132Z,86.67
2022-12-08T04:40:44.735Z,87.25
2022-12-08T04:43:34.376Z,86.79
2022-12-08T04:46:23.682Z,87.02
2022-12-08T04:49:14.419Z,86.53
2022-12-08T04:52:03.699Z,86.67
2022-12-08T04:54:53.028Z,86.88
2022-12-08T04:57:42.373Z,87.26
2022-12-08T05:00:31.627Z,86.67
2022-12-08T05:03:26.864Z,86.70
2022-12-08T05:06:19.266Z,87.06
2022-12-08T05:09:08.683Z,86.69
2022-12-08T05:11:58.025Z,86.84
2022-12-08T05:14:48.935Z,86.28
2022-12-08T05:17:38.203Z,86.43
2022-12-08T05:20:29.343Z,86.75
2022-12-08T05:23:20.092Z,86.14
2022-12-08T05:26:09.459Z,85.86
2022-12-08T05:28:59.036Z,86.84
2022-12-08T05:31:48.435Z,86.45
2022-12-08T05:34:38.061Z,86.87
2022-12-08T05:37:27.688Z,86.40
2022-12-08T05:40:18.633Z,86.84
2022-12-08T05:43:08.247Z,86.55
2022-12-08T05:45:57.789Z,86.74
2022-12-08T05:48:47.123Z,86.53
2022-12-08T05:51:36.464Z,86.79
2022-12-08T05:54:25.735Z,86.27
2022-12-08T05:57:16.410Z,86.82
2022-12-08T06:00:07.618Z,85.81
2022-12-08T06:03:01.593Z,85.97
2022-12-08T06:05:51.032Z,86.30
2022-12-08T06:08:40.306Z,86.76
2022-12-08T06:11:32.206Z,86.16
2022-12-08T06:14:23.010Z,85.89
2022-12-08T06:17:12.333Z,85.97
2022-12-08T06:20:02.030Z,86.46
2022-12-08T06:22:51.986Z,86.83
2022-12-08T06:25:41.248Z,86.27
2022-12-08T06:28:31.556Z,86.68
2022-12-08T06:31:25.801Z,86.22
2022-12-08T06:34:15.177Z,86.06
2022-12-08T06:37:04.496Z,86.48
2022-12-08T06:39:53.885Z,86.43
2022-12-08T06:42:45.128Z,86.00
2022-12-08T06:45:34.445Z,86.87
2022-12-08T06:48:25.341Z,86.06
2022-12-08T06:51:17.145Z,86.73
2022-12-08T06:54:06.718Z,86.01
2022-12-08T06:56:56.037Z,86.62
2022-12-08T06:59:45.909Z,86.55
2022-12-08T07:02:35.311Z,86.91
2022-12-08T07:05:26.156Z,86.43
2022-12-08T07:08:15.903Z,86.75
2022-12-08T07:11:09.675Z,87.00
2022-12-08T07:13:59.160Z,87.04
2022-12-08T07:16:48.798Z,87.19
2022-12-08T07:19:38.317Z,87.53
2022-12-08T07:22:29.306Z,87.50
2022-12-08T07:25:19.000Z,87.24
2022-12-08T07:28:12.602Z,87.53
2022-12-08T07:31:02.063Z,86.98
2022-12-08T07:33:51.783Z,87.60
2022-12-08T07:36:41.481Z,87.10
2022-12-08T07:39:32.566Z,86.79
2022-12-08T07:42:22.068Z,86.73
2022-12-08T07:45:12.512Z,86.72
2022-12-08T07:48:01.789Z,86.67
2022-12-08T07:50:51.187Z,87.35
2022-12-08T07:53:42.806Z,86.98
2022-12-08T07:56:34.959Z,86.51
2022-12-08T07:59:24.568Z,86.94
2022-12-08T08:02:24.675Z,86.78
2022-12-08T08:05:15.528Z,86.75
2022-12-08T08:08:05.317Z,86.77
2022-12-08T08:10:54.754Z,86.42
2022-12-08T08:13:46.947Z,86.06
2022-12-08T08:16:38.591Z,86.59
2022-12-08T08:19:29.881Z,86.66
2022-12-08T08:22:19.166Z,86.05
2022-12-08T08:25:10.773Z,86.81
2022-12-08T08:28:00.191Z,86.62
2022-12-08T08:30:51.290Z,87.13
2022-12-08T08:33:40.683Z,86.33
2022-12-08T08:36:30.081Z,86.67
2022-12-08T08:39:20.905Z,87.28
2022-12-08T08:42:11.419Z,87.23
2022-12-08T08:45:00.956Z,88.02
2022-12-08T08:47:51.830Z,87.61
2022-12-08T08:50:42.017Z,87.65
2022-12-08T08:53:31.369Z,87.80
2022-12-08T08:56:21.549Z,87.47
2022-12-08T08:59:12.487Z,87.52
2022-12-08T09:02:01.856Z,87.37
2022-12-08T09:04:52.985Z,87.13
2022-12-08T09:07:42.413Z,87.99
2022-12-08T09:10:31.760Z,87.40
2022-12-08T09:13:22.449Z,88.00
2022-12-08T09:16:13.774Z,87.70
2022-12-08T09:19:03.040Z,87.71
2022-12-08T09:21:55.261Z,87.70
2022-12-08T09:24:44.983Z,87.28
2022-12-08T09:27:34.282Z,88.22
2022-12-08T09:30:23.892Z,87.79
2022-12-08T09:33:14.182Z,87.89
2022-12-08T09:36:05.112Z,87.87
2022-12-08T09:38:58.160Z,88.10
2022-12-08T09:41:52.136Z,88.07
2022-12-08T09:44:51.942Z,88.00
2022-12-08T09:47:47.403Z,88.08
2022-12-08T09:50:42.452Z,87.61
2022-12-08T09:53:38.233Z,87.13
2022-12-08T09:56:35.836Z,88.26
2022-12-08T09:59:30.961Z,88.20
2022-12-08T10:02:24.850Z,87.29
2022-12-08T10:05:16.491Z,86.95
2022-12-08T10:08:14.128Z,86.83
2022-12-08T10:11:12.564Z,86.25
2022-12-08T10:14:20.244Z,86.85
2022-12-08T10:17:21.517Z,86.49
2022-12-08T10:20:19.282Z,87.13
2022-12-08T10:23:24.403Z,85.97
2022-12-08T10:26:17.184Z,86.57
2022-12-08T10:29:13.916Z,85.90
2022-12-08T10:32:18.339Z,85.66
2022-12-08T10:35:11.091Z,85.92
2022-12-08T10:38:02.932Z,86.29
2022-12-08T10:40:55.874Z,86.72
2022-12-08T10:43:48.855Z,86.06
2022-12-08T10:46:40.103Z,86.46
2022-12-08T10:49:33.657Z,84.66
2022-12-08T10:52:25.479Z,85.65
2022-12-08T10:55:20.822Z,84.01
2022-12-08T10:58:30.909Z,83.22
2022-12-08T11:01:25.046Z,83.27
2022-12-08T11:04:20.544Z,83.25
2022-12-08T11:07:11.897Z,83.79
2022-12-08T11:10:01.435Z,84.48
2022-12-08T11:12:51.757Z,83.89
2022-12-08T11:15:42.338Z,83.67
2022-12-08T11:18:41.505Z,82.47
2022-12-08T11:21:39.148Z,81.14
2022-12-08T11:24:36.027Z,82.83
2022-12-08T11:27:27.048Z,82.90
2022-12-08T11:30:20.073Z,81.95
2022-12-08T11:33:16.318Z,82.03
2022-12-08T11:36:11.189Z,81.89
2022-12-08T11:39:06.079Z,82.66
2022-12-08T11:41:58.326Z,81.27
2022-12-08T11:44:55.764Z,80.45
2022-12-08T11:47:55.981Z,80.13
2022-12-08T11:50:51.668Z,80.65
2022-12-08T11:53:51.629Z,79.49
2022-12-08T11:56:46.738Z,79.12
2022-12-08T11:59:41.903Z,80.67
2022-12-08T12:02:34.665Z,76.38
2022-12-08T12:08:57.890Z,75.64
2022-12-08T12:12:16.852Z,74.62
2022-12-08T12:15:38.059Z,74.24
2022-12-08T12:18:33.221Z,76.65
2022-12-08T12:21:27.741Z,74.35
2022-12-08T12:24:26.755Z,74.73
2022-12-08T12:27:29.338Z,75.35
2022-12-08T12:30:25.497Z,75.85
2022-12-08T12:33:18.285Z,76.62
2022-12-08T12:36:11.088Z,74.59
2022-12-08T12:39:03.336Z,76.08
2022-12-08T12:41:56.025Z,75.27
2022-12-08T12:44:46.683Z,76.14
2022-12-08T12:47:55.830Z,76.34
2022-12-08T12:50:47.908Z,76.38
2022-12-08T12:53:52.314Z,76.02
2022-12-08T12:56:56.732Z,77.35
2022-12-08T13:00:07.780Z,77.31
2022-12-08T13:02:59.795Z,78.28
2022-12-08T13:05:53.524Z,77.97
2022-12-08T13:08:52.575Z,78.38
2022-12-08T13:11:52.955Z,78.22
2022-12-08T13:14:51.844Z,78.30
2022-12-08T13:17:48.534Z,78.17
2022-12-08T13:20:47.428Z,78.31
2022-12-08T13:23:49.323Z,78.57
2022-12-08T13:26:46.189Z,78.08
2022-12-08T13:29:37.462Z,78.37
2022-12-08T13:36:23.945Z,78.26
2022-12-08T13:39:22.986Z,77.84
2022-12-08T13:42:25.035Z,77.34
2022-12-08T13:58:29.536Z,77.55
2022-12-08T14:01:22.874Z,78.03
2022-12-08T14:04:42.477Z,77.95
2022-12-08T14:07:28.802Z,77.60
2022-12-08T14:10:23.417Z,77.33
2022-12-08T14:13:15.185Z,78.16
2022-12-08T14:16:04.574Z,77.68
2022-12-08T14:18:54.001Z,77.28
2022-12-08T14:21:49.725Z,77.32
2022-12-08T14:24:39.127Z,77.54
2022-12-08T14:27:33.753Z,76.30
2022-12-08T14:30:27.377Z,75.83
2022-12-08T14:33:18.094Z,75.90
2022-12-08T14:36:10.546Z,76.00
2022-12-08T14:39:01.362Z,75.15
2022-12-08T14:42:02.235Z,74.67
2022-12-08T14:45:07.079Z,72.45
2022-12-08T14:47:56.442Z,73.60
2022-12-08T14:50:57.180Z,73.93
2022-12-08T14:53:53.273Z,72.98
2022-12-08T14:56:51.936Z,71.59
2022-12-08T14:59:44.325Z,72.34
2022-12-08T15:02:34.553Z,71.52
2022-12-08T15:05:28.194Z,71.15
2022-12-08T15:08:17.732Z,71.10
2022-12-08T15:11:34.898Z,69.38
2022-12-08T15:14:34.050Z,70.03
2022-12-08T15:17:35.817Z,71.11
2022-12-08T15:20:35.857Z,70.59
2022-12-08T15:23:31.543Z,71.18
2022-12-08T15:26:24.446Z,70.60
2022-12-08T15:29:20.617Z,70.85
2022-12-08T15:32:16.091Z,71.76
2022-12-08T15:35:05.946Z,71.17
2022-12-08T15:37:55.425Z,70.71
2022-12-08T15:40:44.772Z,71.44
2022-12-08T15:43:34.441Z,71.49
2022-12-08T15:46:23.783Z,71.71
2022-12-08T15:49:19.838Z,71.30
2022-12-08T15:52:16.194Z,71.29
2022-12-08T15:55:06.416Z,71.80
2022-12-08T16:01:06.670Z,71.77
2022-12-08T16:07:21.456Z,72.60
2022-12-08T16:10:18.560Z,72.38
2022-12-08T16:16:43.516Z,72.57
2022-12-08T16:19:32.860Z,72.36
2022-12-08T16:26:00.554Z,73.10
2022-12-08T16:28:54.070Z,73.47
2022-12-08T16:31:44.200Z,73.15
2022-12-08T16:34:33.750Z,73.30
2022-12-08T16:37:27.613Z,73.06
2022-12-08T16:40:17.285Z,73.11
2022-12-08T16:43:05.525Z,73.48
2022-12-08T16:45:55.116Z,74.53
2022-12-08T16:48:44.858Z,74.76
2022-12-08T16:51:34.246Z,74.86
2022-12-08T16:54:25.087Z,75.13
2022-12-08T16:57:14.889Z,74.88
2022-12-08T17:00:06.278Z,75.26
2022-12-08T17:02:56.383Z,75.24
2022-12-08T17:05:45.993Z,75.91
2022-12-08T17:08:35.316Z,75.26
2022-12-08T17:11:30.132Z,75.21
2022-12-08T17:14:19.956Z,75.16
2022-12-08T17:17:09.548Z,76.06
2022-12-08T17:19:58.855Z,76.41
2022-12-08T17:22:48.721Z,77.24
2022-12-08T17:25:38.083Z,77.58
2022-12-08T17:28:51.885Z,76.93
2022-12-08T17:31:38.719Z,76.94
2022-12-08T17:34:28.796Z,76.91
2022-12-08T17:37:18.903Z,76.74
2022-12-08T17:40:10.236Z,77.17
2022-12-08T17:42:59.533Z,77.09
2022-12-08T17:45:50.958Z,77.49
2022-12-08T17:48:40.277Z,77.99
2022-12-08T17:51:29.805Z,77.16
2022-12-08T17:54:20.312Z,77.43
2022-12-08T17:57:09.990Z,78.13
2022-12-08T17:59:59.468Z,78.31
2022-12-08T18:02:50.460Z,77.58
2022-12-08T18:05:39.789Z,77.85
2022-12-08T18:08:29.215Z,78.15
2022-12-08T18:11:20.991Z,78.36
2022-12-08T18:14:10.970Z,78.30
2022-12-08T18:17:00.438Z,79.05
2022-12-08T18:19:51.475Z,78.29
2022-12-08T18:22:41.876Z,78.28
2022-12-08T18:25:31.233Z,78.74
2022-12-08T18:28:20.522Z,78.68
2022-12-08T18:31:11.465Z,79.41
2022-12-08T18:34:00.743Z,79.49
2022-12-08T18:36:51.417Z,79.37
2022-12-08T18:39:41.057Z,79.13
2022-12-08T18:42:30.707Z,79.27
2022-12-08T18:45:22.683Z,78.87
2022-12-08T18:48:12.530Z,79.04
2022-12-08T18:53:53.685Z,79.14
2022-12-08T18:56:43.123Z,78.61
2022-12-08T18:59:32.626Z,78.89
2022-12-08T19:02:22.275Z,78.90
2022-12-08T19:05:14.210Z,78.96
2022-12-08T19:08:03.776Z,79.04
2022-12-08T19:10:54.552Z,79.11
2022-12-08T19:13:43.888Z,79.12
2022-12-08T19:16:33.313Z,78.74
2022-12-08T19:19:22.735Z,79.00
2022-12-08T19:22:12.384Z,78.84
2022-12-08T19:25:01.742Z,79.21
2022-12-08T19:27:52.492Z,79.13
2022-12-08T19:30:41.919Z,79.18
2022-12-08T19:33:31.391Z,79.21
2022-12-08T19:36:23.539Z,79.67
2022-12-08T19:39:36.975Z,79.65
2022-12-08T19:42:43.888Z,79.09
2022-12-08T19:45:37.706Z,79.99
2022-12-08T19:48:27.457Z,80.44
2022-12-08T19:51:16.791Z,80.50
2022-12-08T19:54:06.354Z,80.76
2022-12-08T19:56:55.633Z,80.61
2022-12-08T19:59:45.128Z,81.54
2022-12-08T20:02:36.668Z,81.53
2022-12-08T20:05:26.374Z,81.41
2022-12-08T20:08:16.165Z,81.34
2022-12-08T20:11:05.867Z,81.91
2022-12-08T20:13:55.257Z,82.21
2022-12-08T20:16:44.682Z,82.30
2022-12-08T20:19:35.413Z,82.02
2022-12-08T20:22:24.858Z,82.47
2022-12-08T20:25:15.016Z,82.80
2022-12-08T20:28:04.901Z,82.68
2022-12-08T20:30:54.322Z,82.48
2022-12-08T20:33:43.847Z,82.69
2022-12-08T20:36:34.614Z,82.65
2022-12-08T20:39:24.024Z,83.00
2022-12-08T20:42:14.854Z,82.91
2022-12-08T20:45:06.647Z,82.75
2022-12-08T20:47:56.254Z,83.01
2022-12-08T20:50:45.897Z,82.83
2022-12-08T20:53:36.871Z,83.27
2022-12-08T20:56:27.418Z,83.44
2022-12-08T20:59:18.369Z,83.05
2022-12-08T21:02:08.119Z,83.09
2022-12-08T21:04:57.687Z,82.87
2022-12-08T21:07:47.736Z,82.67
2022-12-08T21:10:43.666Z,82.30
2022-12-08T21:13:33.891Z,82.52
2022-12-08T21:16:23.398Z,82.17
2022-12-08T21:19:13.669Z,82.04
2022-12-08T21:22:03.427Z,82.02
2022-12-08T21:24:53.265Z,82.14
2022-12-08T21:27:44.053Z,81.93
2022-12-08T21:30:33.453Z,82.11
2022-12-08T21:33:23.276Z,82.01
2022-12-08T21:36:15.573Z,82.17
2022-12-08T21:39:11.303Z,81.90
2022-12-08T21:42:21.484Z,82.37
2022-12-08T21:45:16.320Z,82.33
2022-12-08T21:48:11.493Z,82.67
2022-12-08T21:51:06.626Z,82.87
2022-12-08T21:53:56.344Z,82.52
2022-12-08T21:56:46.321Z,83.05
2022-12-08T21:59:35.987Z,83.26
2022-12-08T22:02:26.906Z,83.07
2022-12-08T22:05:18.425Z,83.15
2022-12-08T22:08:08.183Z,83.26
2022-12-08T22:10:57.636Z,83.54
2022-12-08T22:13:47.042Z,83.72
2022-12-08T22:16:36.572Z,83.71
2022-12-08T22:19:27.798Z,83.94
2022-12-08T22:22:17.309Z,85.26
2022-12-08T22:25:11.065Z,85.38
2022-12-08T22:28:00.438Z,85.63
2022-12-08T22:30:49.940Z,85.23
2022-12-08T22:33:40.312Z,84.75
2022-12-08T22:36:31.031Z,85.39
2022-12-08T22:39:20.561Z,85.19
2022-12-08T22:42:10.003Z,84.83
2022-12-08T22:44:59.415Z,85.69
2022-12-08T22:47:48.703Z,86.06
2022-12-08T22:50:38.271Z,86.01
2022-12-08T22:53:29.338Z,85.57
2022-12-08T22:56:19.952Z,85.91
2022-12-08T22:59:09.276Z,86.56
2022-12-08T23:01:58.575Z,86.22
2022-12-08T23:04:48.670Z,85.83
2022-12-08T23:07:38.469Z,85.78
2022-12-08T23:10:29.926Z,86.09
2022-12-08T23:13:20.162Z,86.00
2022-12-08T23:16:10.971Z,86.06
2022-12-08T23:19:00.979Z,87.06
2022-12-08T23:21:50.430Z,85.62
2022-12-08T23:24:40.006Z,86.25
2022-12-08T23:27:30.836Z,86.15
2022-12-08T23:30:20.368Z,86.81
2022-12-08T23:33:09.932Z,86.95
2022-12-08T23:35:59.683Z,86.88
2022-12-08T23:38:49.217Z,86.85
2022-12-08T23:41:38.709Z,87.15
2022-12-08T23:44:29.615Z,86.29
2022-12-08T23:47:19.265Z,87.01
2022-12-08T23:50:10.872Z,87.44
2022-12-08T23:53:00.704Z,87.16
2022-12-08T23:55:50.251Z,87.08
2022-12-08T23:58:40.602Z,87.69
